< < Back
Terminal Aerodrome Forecast


Current Version              Previous Versions:   1  2  3  4  5  6  7  8  9  

Terminal Aerodrome Forecast

249
FTUS42 KJAX 021120
TAFSSI
TAF
KSSI 021120Z 0212/0312 25008KT P6SM SCT025 SCT250
     FM021700 18011KT P6SM VCTS BKN045CB BKN150 BKN250
      TEMPO 0218/0222 VRB15G30KT 3SM TSRA BR SCT025 BKN040CB OVC090
     FM022300 26008KT P6SM VCTS SCT020 BKN040CB OVC150
     FM030200 24006KT P6SM BKN150 BKN250=

Latest METAR

083
SAUS70 KWBC 021600 RRB
MTRSSI
METAR KSSI 021553Z AUTO 25009KT 10SM CLR 32/22 A3007 RMK AO2 SLP182
T03170222


USA.gov is the U.S. government's official web portal to all federal, state and local government web resources and services.